• Join FlightAware (Why Join?)
  • Login
  • US Flag 
12:34AM EDT


 

Airport Tracker/Info


-or-


 

Live Flight TrackerFlight Track Log ✈ EJA328 ✈ 24-Mar-2014 ✈ KSMF - KSJC

Flight Track Log - Related Links

Times and Time Zones

All times are in EDT time to prevent confusion due to time zone crossing. See the EJA328 flight status page for this flight to view local times or setup timezone preferences in your user account.

Time Position Orientation Groundspeed Altitude Reporting Facility
EDT Latitude Longitude Course Direction KTS MPH feet Rate Location/Type
03:38PM 38.6732 -121.5972 151° Southeast 177 204 1,500  Level FlightAware ADS-B
03:38PM 38.6588 -121.5803 134° Southeast 204 235 2,400 2,520 Climbing FlightAware ADS-B
03:39PM 38.6310 -121.5424 133° Southeast 241 277 4,200 3,000 Climbing FlightAware ADS-B
03:39PM 38.6159 -121.5218 132° Southeast 254 292 5,400 3,720 Climbing FlightAware ADS-B
03:39PM 38.5993 -121.4986 132° Southeast 260 299 6,700 3,060 Climbing FlightAware ADS-B
03:40PM 38.5844 -121.4778 132° Southeast 264 304 7,400 2,580 Climbing FlightAware ADS-B
03:40PM 38.5675 -121.4540 132° Southeast 267 307 8,300 2,280 Climbing FlightAware ADS-B
03:40PM 38.5493 -121.4285 132° Southeast 276 318 9,000 780 Climbing FlightAware ADS-B
03:41PM 38.5161 -121.3816 132° Southeast 282 325 9,100 300 Climbing FlightAware ADS-B
03:41PM 38.4983 -121.3568 132° Southeast 283 326 9,300 1,020 Climbing FlightAware ADS-B
03:42PM 38.4797 -121.3309 132° Southeast 283 326 9,800 1,440 Climbing FlightAware ADS-B
03:42PM 38.4443 -121.2812 132° Southeast 288 331 10,800 1,020 Climbing FlightAware ADS-B
03:43PM 38.4066 -121.2284 132° Southeast 327 376 11,200 180 Climbing FlightAware ADS-B
03:44PM 38.3638 -121.1683 132° Southeast 346 398 11,100  Descending FlightAware ADS-B
03:44PM 38.3107 -121.1191 167° South 354 407 11,200  Climbing FlightAware ADS-B
03:45PM 38.2109 -121.0963 168° South 357 411 11,100 -120 Descending FlightAware ADS-B
03:46PM 38.1514 -121.0813 169° South 355 409 11,100  Level FlightAware ADS-B
03:47PM 38.0858 -121.0657 169° South 354 407 11,100  Level FlightAware ADS-B
03:47PM 38.0168 -121.0508 177° South 353 406 11,100 60 Level FlightAware ADS-B
03:48PM 37.9918 -121.0576 203° Southwest 352 405 11,200  Climbing FlightAware ADS-B
03:48PM 37.9318 -121.0976 205° Southwest 357 411 11,100 -120 Descending FlightAware ADS-B
03:49PM 37.8695 -121.1341 204° Southwest 359 413 11,100  Level FlightAware ADS-B
03:50PM 37.8105 -121.1687 205° Southwest 354 407 11,100 -420 Level FlightAware ADS-B
03:50PM 37.7853 -121.1840 205° Southwest 351 404 10,800 -480 Descending FlightAware ADS-B
03:50PM 37.7401 -121.2100 205° Southwest 350 403 10,800 540 Level FlightAware ADS-B
03:50PM 37.7475 -121.2060 205° Southwest 349 402 11,100 540 Climbing FlightAware ADS-B
03:51PM 37.7071 -121.2298 205° Southwest 352 405 11,100 -300 Level FlightAware ADS-B
03:51PM 37.6388 -121.2700 205° Southwest 352 405 10,800  Descending FlightAware ADS-B
03:52PM 37.6335 -121.2732 205° Southwest 352 405 11,100  Climbing FlightAware ADS-B
03:52PM 37.5926 -121.2970 205° Southwest 356 410 10,800  Descending FlightAware ADS-B
03:52PM 37.5693 -121.3110 205° Southwest 358 412 11,100  Climbing FlightAware ADS-B
03:52PM 37.5459 -121.3250 205° Southwest 362 417 10,800 -480 Descending FlightAware ADS-B
03:53PM 37.4991 -121.3520 205° Southwest 353 406 10,800 540 Level FlightAware ADS-B
03:53PM 37.5114 -121.3450 205° Southwest 356 410 11,100  Climbing FlightAware ADS-B
03:53PM 37.4548 -121.3780 205° Southwest 340 391 10,800 -1,200 Descending FlightAware ADS-B
03:54PM 37.4128 -121.4030 205° Southwest 331 381 9,900 -1,500 Descending FlightAware ADS-B
03:54PM 37.3897 -121.4170 205° Southwest 269 310 9,500 -1,320 Descending FlightAware ADS-B
03:55PM 37.3708 -121.4280 205° Southwest 258 297 9,100 -1,500 Descending FlightAware ADS-B
03:55PM 37.3540 -121.4370 205° Southwest 256 295 8,700 -1,680 Descending FlightAware ADS-B
03:55PM 37.3124 -121.4630 205° Southwest 260 299 7,600 -1,620 Descending FlightAware ADS-B
03:56PM 37.3055 -121.4710 224° Southwest 225 259 7,400 -1,440 Descending FlightAware ADS-B
03:56PM 37.2973 -121.4830 231° Southwest 225 259 7,100 -1,500 Descending FlightAware ADS-B
03:56PM 37.2940 -121.4860 220° Southwest 223 257 7,000 -1,500 Descending FlightAware ADS-B
03:56PM 37.2905 -121.4890 211° Southwest 223 257 6,900 -1,500 Descending FlightAware ADS-B
03:56PM 37.2827 -121.4930 204° Southwest 223 257 6,700 -1,500 Descending FlightAware ADS-B
03:56PM 37.2641 -121.5030 204° Southwest 222 255 6,200 -1,380 Descending FlightAware ADS-B
03:57PM 37.2490 -121.5120 204° Southwest 221 254 5,900 -1,020 Descending FlightAware ADS-B
03:57PM 37.2420 -121.5160 209° Southwest 218 251 5,800 -480 Descending FlightAware ADS-B
03:57PM 37.2365 -121.5210 214° Southwest 215 247 5,800  Level FlightAware ADS-B
03:57PM 37.2221 -121.5330 214° Southwest 222 255 5,800  Level FlightAware ADS-B
03:58PM 37.2034 -121.5490 214° Southwest 224 258 5,800  Level FlightAware ADS-B
03:58PM 37.1898 -121.5600 214° Southwest 221 254 5,800  Level FlightAware ADS-B
03:58PM 37.1768 -121.5710 214° Southwest 215 247 5,800  Level FlightAware ADS-B
03:58PM 37.1681 -121.5790 220° Southwest 213 245 5,800  Level FlightAware ADS-B
03:58PM 37.1646 -121.5860 238° Southwest 214 246 5,800 -600 Level FlightAware ADS-B
03:58PM 37.1631 -121.5900 250° West 214 246 5,700 -900 Descending FlightAware ADS-B
03:59PM 37.1624 -121.5940 257° West 215 247 5,700 -900 Level FlightAware ADS-B
03:59PM 37.1618 -121.5990 262° West 216 249 5,600 -960 Descending FlightAware ADS-B
03:59PM 37.1605 -121.6180 265° West 218 251 5,400 -1,020 Descending FlightAware ADS-B
03:59PM 37.1592 -121.6370 265° West 218 251 5,100 -1,020 Descending FlightAware ADS-B
03:59PM 37.1579 -121.6570 265° West 217 250 4,900 -600 Descending FlightAware ADS-B
04:00PM 37.1566 -121.6760 265° West 215 247 4,800 -240 Descending FlightAware ADS-B
04:00PM 37.1553 -121.6930 266° West 213 245 4,800  Level FlightAware ADS-B
04:00PM 37.1554 -121.6980 272° West 212 244 4,800  Level FlightAware ADS-B
04:00PM 37.1564 -121.7050 284° West 212 244 4,800  Level FlightAware ADS-B
04:00PM 37.1582 -121.7100 296° West 212 244 4,800  Level FlightAware ADS-B
04:00PM 37.1606 -121.7140 305° West 212 244 4,800  Level FlightAware ADS-B
04:00PM 37.1630 -121.7180 313° West 212 244 4,800  Level FlightAware ADS-B
04:00PM 37.1655 -121.7210 317° Northwest 213 245 4,800 -780 Level FlightAware ADS-B
04:00PM 37.1688 -121.7240 322° Northwest 214 246 4,700 -1,140 Descending FlightAware ADS-B
04:00PM 37.1741 -121.7290 325° Northwest 215 247 4,600 -1,080 Descending FlightAware ADS-B
04:01PM 37.1873 -121.7400 326° Northwest 213 245 4,300 -1,380 Descending FlightAware ADS-B
04:01PM 37.1927 -121.7450 325° Northwest 213 245 4,100 -1,440 Descending FlightAware ADS-B
04:01PM 37.1981 -121.7500 321° Northwest 215 247 4,000 -1,260 Descending FlightAware ADS-B
04:01PM 37.2104 -121.7630 319° Northwest 213 245 3,600 -1,320 Descending FlightAware ADS-B
04:01PM 37.2216 -121.7750 318° Northwest 210 242 3,300 -1,140 Descending FlightAware ADS-B
04:02PM 37.2341 -121.7890 318° Northwest 207 238 3,000 -1,140 Descending FlightAware ADS-B
04:02PM 37.2454 -121.8020 319° Northwest 204 235 2,700 -1,080 Descending FlightAware ADS-B
04:02PM 37.2576 -121.8150 320° Northwest 188 216 2,400 -840 Descending FlightAware ADS-B
04:02PM 37.2056 -121.7579 319° Northwest 203 234 2,400 -1,020 Level FlightAware ADS-B
04:03PM 37.2658 -121.8240 319° Northwest 174 200 2,200 -1,080 Descending FlightAware ADS-B
04:03PM 37.2748 -121.8340 319° Northwest 169 194 2,000 -780 Descending FlightAware ADS-B
04:03PM 37.2838 -121.8440 319° Northwest 169 194 1,800 -900 Descending FlightAware ADS-B
04:03PM 37.2918 -121.8520 319° Northwest 167 192 1,600 -840 Descending FlightAware ADS-B
04:04PM 37.3006 -121.8620 319° Northwest 150 173 1,400 -960 Descending FlightAware ADS-B
04:04PM 37.3088 -121.8710 319° Northwest 150 173 1,100 -1,020 Descending FlightAware ADS-B
04:04PM 37.3168 -121.8800 319° Northwest 147 169 900 -720 Descending FlightAware ADS-B
04:04PM 37.3226 -121.8859 319° Northwest 145 167 800 -600 Descending FlightAware ADS-B
04:05PM 37.3318 -121.8960 319° Northwest 144 166 600 -840 Descending FlightAware ADS-B
04:05PM 37.3349 -121.8996 319° Northwest 137 158 400 -660 Descending FlightAware ADS-B
04:05PM 37.3441 -121.9096 319° Northwest 137 158 300 -360 Descending FlightAware ADS-B